Ocean Celebrity — HOSZ — position and weather

sailwx.info

Track history (hours):
 
Tides and Currents Weather Stations Pressure Air Temp Water Temp Dewpoint Dewpoint Depression Visibility Wind Speed Wind Dir Waves Ship Positions

Ocean Celebrity

Last reported at 2015-Jun-25 20:07 UTC. Time now 2015-Jul-05 00:13 UTC.
Position N 30°02' E 124°00'.
Warning: this ship's position is 9 days out of date.

Length 289 m; draft 7.1 m.

Type: Cargo ship. MMSI: 356712000.

Date/timePositionNaut miles runAvg speedWind from/ knotsBaromVisibWave heightAir tempDewpointWater temp
2015-Jun-25 20:07N 30°02' E 124°00'4111.4
2015-Jun-25 16:31N 30°43' E 124°00'42212.1
2015-Jun-24 05:30N 37°43' E 123°06'1112.0
2015-Jun-24 04:33N 37°50' E 122°55'1212.1
2015-Jun-24 03:33N 37°55' E 122°41'1212.1
2015-Jun-24 02:32N 38°00' E 122°26'1212.3
2015-Jun-24 01:33N 38°05' E 122°12'1312.6
2015-Jun-24 00:33N 38°10' E 121°58'1312.7
2015-Jun-23 23:33N 38°15' E 121°43'1712.5
2015-Jun-23 22:12N 38°22' E 121°23'1112.6
2015-Jun-23 21:19N 38°27' E 121°10'1412.6
2015-Jun-23 20:11N 38°33' E 120°54'1210.9
2015-Jun-23 19:05N 38°44' E 120°48'110 4.7
2015-Jun-22 19:23N 40°18' E 122°05'0 0.0
2015-Jun-22 18:29N 40°18' E 122°05'0 0.0
2015-Jun-22 17:29N 40°18' E 122°05'0 0.0
2015-Jun-22 16:23N 40°18' E 122°05'0 0.0
2015-Jun-22 15:29N 40°18' E 122°05'0 0.0
2015-Jun-22 14:23N 40°18' E 122°05'0 0.0
2015-Jun-22 13:29N 40°18' E 122°05'0 0.0
2015-Jun-22 12:23N 40°18' E 122°05'30 1.2
2015-Jun-21 11:27N 40°03' E 121°30'90 4.1
2015-Jun-20 13:30N 38°37' E 120°56'2110.6
2015-Jun-20 11:33N 38°27' E 121°19'1111.3
2015-Jun-20 10:33N 38°22' E 121°32'1211.9
2015-Jun-20 09:33N 38°17' E 121°46'1212.0
2015-Jun-20 08:33N 38°12' E 121°59'1211.8
2015-Jun-20 07:33N 38°06' E 122°13'2311.4
2015-Jun-20 05:30N 37°56' E 122°39'201 8.1
2015-Jun-19 04:32N 35°19' E 120°03'1211.5
2015-Jun-19 03:32N 35°27' E 119°52'9 9.3
2015-Jun-19 02:32N 35°35' E 119°48'1 0.5
2015-Jun-19 01:22N 35°35' E 119°47'0 0.0
2015-Jun-19 00:28N 35°35' E 119°47'0 0.0
2015-Jun-18 23:22N 35°35' E 119°47'0 0.0
2015-Jun-18 22:04N 35°35' E 119°47'0 0.0
2015-Jun-18 21:28N 35°35' E 119°47'0 0.0
2015-Jun-18 20:28N 35°35' E 119°47'0 0.0
2015-Jun-18 19:22N 35°35' E 119°47'0 0.0
2015-Jun-18 18:28N 35°35' E 119°47'0 0.0
2015-Jun-18 17:28N 35°35' E 119°47'0 0.0
2015-Jun-18 16:10N 35°35' E 119°47'0 0.0
2015-Jun-18 15:28N 35°35' E 119°47'0 0.0
2015-Jun-18 14:28N 35°35' E 119°47'0 0.0
2015-Jun-18 13:28N 35°35' E 119°47'0 0.0
2015-Jun-18 11:16N 35°35' E 119°47'0 0.0
2015-Jun-18 10:28N 35°35' E 119°47'0 0.0
2015-Jun-18 09:22N 35°35' E 119°47'0 0.0
2015-Jun-18 03:10N 35°35' E 119°47'0 0.0
2015-Jun-18 02:28N 35°35' E 119°47'0 0.0
2015-Jun-18 01:04N 35°35' E 119°47'0 0.0
2015-Jun-18 00:16N 35°35' E 119°47'0 0.0
2015-Jun-17 23:22N 35°35' E 119°47'0 0.0
2015-Jun-17 22:22N 35°35' E 119°47'0 0.0
2015-Jun-17 21:28N 35°35' E 119°47'0 0.0
2015-Jun-17 20:28N 35°35' E 119°47'0 0.0
2015-Jun-17 19:28N 35°35' E 119°47'0 0.0
2015-Jun-17 18:22N 35°35' E 119°47'0 0.0
2015-Jun-17 17:22N 35°35' E 119°47'0 0.0
2015-Jun-17 16:10N 35°35' E 119°47'0 0.0
2015-Jun-17 15:28N 35°35' E 119°47'0 0.0
2015-Jun-17 14:22N 35°35' E 119°47'0 0.0
2015-Jun-17 12:28N 35°35' E 119°47'0 0.0
2015-Jun-17 11:04N 35°35' E 119°47'0 0.0
2015-Jun-17 10:28N 35°35' E 119°47'0 0.0
2015-Jun-17 09:22N 35°35' E 119°47'0 0.0
2015-Jun-17 08:22N 35°35' E 119°47'0 0.0
2015-Jun-17 07:28N 35°35' E 119°47'0 0.0
2015-Jun-17 06:22N 35°35' E 119°47'0 0.0
2015-Jun-17 05:10N 35°35' E 119°47'0 0.0
2015-Jun-17 04:10N 35°35' E 119°47'0 0.0
2015-Jun-17 03:27N 35°35' E 119°47'0 0.0
2015-Jun-17 02:27N 35°35' E 119°47'0 0.0
2015-Jun-17 01:15N 35°35' E 119°47'0 0.0
2015-Jun-17 00:33N 35°35' E 119°47'0 0.0
2015-Jun-16 23:33N 35°35' E 119°47'1 0.8
2015-Jun-16 22:30N 35°35' E 119°48'8 0.9
2015-Jun-16 13:24N 35°28' E 119°53'0 0.0
2015-Jun-16 12:18N 35°28' E 119°53'0 0.2
2015-Jun-16 11:33N 35°28' E 119°52'6 5.7
2015-Jun-16 10:33N 35°24' E 119°57'9 9.4
2015-Jun-16 09:33N 35°19' E 120°07'1111.1
2015-Jun-16 08:34N 35°17' E 120°20'  
Track history (hours):
 
Tides and Currents Weather Stations Pressure Air Temp Water Temp Dewpoint Dewpoint Depression Visibility Wind Speed Wind Dir Waves Ship Positions

Ocean Celebrity

Last reported at 2015-Jun-25 20:07 UTC. Time now 2015-Jul-05 00:13 UTC.
Position N 30°02' E 124°00'.
Warning: this ship's position is 9 days out of date.

Length 289 m; draft 7.1 m.

Type: Cargo ship. MMSI: 356712000.

Date/timePositionNaut miles runAvg speedWind from/ knotsBaromVisibWave heightAir tempDewpointWater temp
2015-Jun-25 20:07N 30°02' E 124°00'4111.4
2015-Jun-25 16:31N 30°43' E 124°00'42212.1
2015-Jun-24 05:30N 37°43' E 123°06'1112.0
2015-Jun-24 04:33N 37°50' E 122°55'1212.1
2015-Jun-24 03:33N 37°55' E 122°41'1212.1
2015-Jun-24 02:32N 38°00' E 122°26'1212.3
2015-Jun-24 01:33N 38°05' E 122°12'1312.6
2015-Jun-24 00:33N 38°10' E 121°58'1312.7
2015-Jun-23 23:33N 38°15' E 121°43'1712.5
2015-Jun-23 22:12N 38°22' E 121°23'1112.6
2015-Jun-23 21:19N 38°27' E 121°10'1412.6
2015-Jun-23 20:11N 38°33' E 120°54'1210.9
2015-Jun-23 19:05N 38°44' E 120°48'110 4.7
2015-Jun-22 19:23N 40°18' E 122°05'0 0.0
2015-Jun-22 18:29N 40°18' E 122°05'0 0.0
2015-Jun-22 17:29N 40°18' E 122°05'0 0.0
2015-Jun-22 16:23N 40°18' E 122°05'0 0.0
2015-Jun-22 15:29N 40°18' E 122°05'0 0.0
2015-Jun-22 14:23N 40°18' E 122°05'0 0.0
2015-Jun-22 13:29N 40°18' E 122°05'0 0.0
2015-Jun-22 12:23N 40°18' E 122°05'30 1.2
2015-Jun-21 11:27N 40°03' E 121°30'90 4.1
2015-Jun-20 13:30N 38°37' E 120°56'2110.6
2015-Jun-20 11:33N 38°27' E 121°19'1111.3
2015-Jun-20 10:33N 38°22' E 121°32'1211.9
2015-Jun-20 09:33N 38°17' E 121°46'1212.0
2015-Jun-20 08:33N 38°12' E 121°59'1211.8
2015-Jun-20 07:33N 38°06' E 122°13'2311.4
2015-Jun-20 05:30N 37°56' E 122°39'201 8.1
2015-Jun-19 04:32N 35°19' E 120°03'1211.5
2015-Jun-19 03:32N 35°27' E 119°52'9 9.3
2015-Jun-19 02:32N 35°35' E 119°48'1 0.5
2015-Jun-19 01:22N 35°35' E 119°47'0 0.0
2015-Jun-19 00:28N 35°35' E 119°47'0 0.0
2015-Jun-18 23:22N 35°35' E 119°47'0 0.0
2015-Jun-18 22:04N 35°35' E 119°47'0 0.0
2015-Jun-18 21:28N 35°35' E 119°47'0 0.0
2015-Jun-18 20:28N 35°35' E 119°47'0 0.0
2015-Jun-18 19:22N 35°35' E 119°47'0 0.0
2015-Jun-18 18:28N 35°35' E 119°47'0 0.0
2015-Jun-18 17:28N 35°35' E 119°47'0 0.0
2015-Jun-18 16:10N 35°35' E 119°47'0 0.0
2015-Jun-18 15:28N 35°35' E 119°47'0 0.0
2015-Jun-18 14:28N 35°35' E 119°47'0 0.0
2015-Jun-18 13:28N 35°35' E 119°47'0 0.0
2015-Jun-18 11:16N 35°35' E 119°47'0 0.0
2015-Jun-18 10:28N 35°35' E 119°47'0 0.0
2015-Jun-18 09:22N 35°35' E 119°47'0 0.0
2015-Jun-18 03:10N 35°35' E 119°47'0 0.0
2015-Jun-18 02:28N 35°35' E 119°47'0 0.0
2015-Jun-18 01:04N 35°35' E 119°47'0 0.0
2015-Jun-18 00:16N 35°35' E 119°47'0 0.0
2015-Jun-17 23:22N 35°35' E 119°47'0 0.0
2015-Jun-17 22:22N 35°35' E 119°47'0 0.0
2015-Jun-17 21:28N 35°35' E 119°47'0 0.0
2015-Jun-17 20:28N 35°35' E 119°47'0 0.0
2015-Jun-17 19:28N 35°35' E 119°47'0 0.0
2015-Jun-17 18:22N 35°35' E 119°47'0 0.0
2015-Jun-17 17:22N 35°35' E 119°47'0 0.0
2015-Jun-17 16:10N 35°35' E 119°47'0 0.0
2015-Jun-17 15:28N 35°35' E 119°47'0 0.0
2015-Jun-17 14:22N 35°35' E 119°47'0 0.0
2015-Jun-17 12:28N 35°35' E 119°47'0 0.0
2015-Jun-17 11:04N 35°35' E 119°47'0 0.0
2015-Jun-17 10:28N 35°35' E 119°47'0 0.0
2015-Jun-17 09:22N 35°35' E 119°47'0 0.0
2015-Jun-17 08:22N 35°35' E 119°47'0 0.0
2015-Jun-17 07:28N 35°35' E 119°47'0 0.0
2015-Jun-17 06:22N 35°35' E 119°47'0 0.0
2015-Jun-17 05:10N 35°35' E 119°47'0 0.0
2015-Jun-17 04:10N 35°35' E 119°47'0 0.0
2015-Jun-17 03:27N 35°35' E 119°47'0 0.0
2015-Jun-17 02:27N 35°35' E 119°47'0 0.0
2015-Jun-17 01:15N 35°35' E 119°47'0 0.0
2015-Jun-17 00:33N 35°35' E 119°47'0 0.0
2015-Jun-16 23:33N 35°35' E 119°47'1 0.8
2015-Jun-16 22:30N 35°35' E 119°48'8 0.9
2015-Jun-16 13:24N 35°28' E 119°53'0 0.0
2015-Jun-16 12:18N 35°28' E 119°53'0 0.2
2015-Jun-16 11:33N 35°28' E 119°52'6 5.7
2015-Jun-16 10:33N 35°24' E 119°57'9 9.4
2015-Jun-16 09:33N 35°19' E 120°07'1111.1
2015-Jun-16 08:34N 35°17' E 120°20'  

Dump ship's entire track history